Terminal Aerodrome Forecast
Issued by NWS

Home | Current Version | Previous Version | Text Only | Print | Product List | Glossary On
Versions: 1 2 3 4 5 6 7 8 9 10 11 12 13 14 15 16 17 18 19 20 21 22 23 24 25
355
FTUS45 KBYZ 121735
TAFLVM
TAF
KLVM 121735Z 1218/1318 23008KT P6SM VCSH BKN060 OVC080
     FM122000 23012KT P6SM SCT120
     FM130300 22020G30KT P6SM BKN100
     FM131500 24020G35KT P6SM VCSH OVC050=

USA.gov is the U.S. government's official web portal to all federal, state and local government web resources and services.